Time;durP1;ratioP1;P1;durP2;ratioP2;P2;SDS_P1;SDS_P2;PMS_P1;PMS_P2;Temp;Humidity;BMP_temperature;BMP_pressure;BME280_temperature;BME280_humidity;BME280_pressure;Samples;Min_cycle;Max_cycle;Signal;HPM_P1;HPM_P2
2022/05/05 00:00:15;;;;;;;5.32;2.47;;;7.80;99.90;;;;;;5016195;28;20026;-75
2022/05/05 00:02:41;;;;;;;4.70;2.08;;;7.70;99.90;;;;;;5000547;28;20048;-75
2022/05/05 00:05:07;;;;;;;4.35;2.33;;;7.60;99.90;;;;;;4999124;28;20037;-75
2022/05/05 00:07:33;;;;;;;4.45;2.25;;;7.70;99.90;;;;;;5000272;28;20401;-76
2022/05/05 00:09:58;;;;;;;4.13;2.28;;;7.70;99.90;;;;;;5015193;28;20033;-75
2022/05/05 00:15:08;;;;;;;5.25;2.08;;;7.70;99.90;;;;;;5016161;28;20560;-75
2022/05/05 00:17:34;;;;;;;4.38;1.92;;;7.70;99.90;;;;;;4994674;28;20577;-75
2022/05/05 00:20:00;;;;;;;5.70;2.25;;;7.80;99.90;;;;;;5015538;28;20108;-75
2022/05/05 00:22:26;;;;;;;5.60;2.28;;;7.80;99.90;;;;;;5014932;28;20052;-75
2022/05/05 00:24:52;;;;;;;3.92;1.70;;;7.80;99.90;;;;;;5016133;28;20563;-75
2022/05/05 00:27:17;;;;;;;4.25;2.00;;;7.80;99.90;;;;;;5014083;28;20037;-75
2022/05/05 00:29:43;;;;;;;5.82;2.22;;;7.80;99.90;;;;;;5023330;28;20112;-75
2022/05/05 00:32:09;;;;;;;4.25;1.95;;;7.90;99.90;;;;;;4999988;28;20060;-75
2022/05/05 00:34:34;;;;;;;3.97;1.98;;;7.90;99.90;;;;;;5016416;28;20146;-75
2022/05/05 00:37:00;;;;;;;5.22;2.00;;;8.00;99.90;;;;;;5010883;28;20033;-75
2022/05/05 00:39:26;;;;;;;6.35;2.55;;;7.90;99.90;;;;;;5015407;28;20095;-75
2022/05/05 00:41:52;;;;;;;3.58;1.50;;;8.00;99.90;;;;;;5015419;28;20083;-75
2022/05/05 00:44:18;;;;;;;3.75;1.70;;;8.00;99.90;;;;;;4999359;28;20387;-75
2022/05/05 00:46:51;;;;;;;3.85;1.85;;;8.00;99.90;;;;;;5016876;28;20610;-75
2022/05/05 00:49:17;;;;;;;4.30;2.17;;;7.90;99.90;;;;;;5016089;28;20132;-75
2022/05/05 00:51:43;;;;;;;4.60;2.80;;;7.90;99.90;;;;;;5030287;28;20025;-75
2022/05/05 00:54:09;;;;;;;5.53;2.80;;;8.00;99.90;;;;;;5014726;28;20037;-75
2022/05/05 00:56:35;;;;;;;4.63;2.42;;;7.90;99.90;;;;;;5022762;28;20045;-75
2022/05/05 00:59:02;;;;;;;4.45;2.42;;;7.90;99.90;;;;;;4996812;28;20048;-75
2022/05/05 01:01:27;;;;;;;4.57;2.28;;;8.00;99.90;;;;;;5000023;28;20030;-74
2022/05/05 01:03:53;;;;;;;6.10;2.45;;;7.90;99.90;;;;;;4994085;28;20034;-75
2022/05/05 01:06:19;;;;;;;4.35;2.05;;;8.00;99.90;;;;;;5015294;28;20029;-75
2022/05/05 01:08:46;;;;;;;5.05;2.28;;;7.90;99.90;;;;;;4999490;28;20504;-75
2022/05/05 01:11:12;;;;;;;5.22;2.53;;;7.90;99.90;;;;;;5014730;28;20548;-75
2022/05/05 01:13:40;;;;;;;6.43;1.77;;;7.90;99.90;;;;;;5032338;28;20038;-75
2022/05/05 01:16:07;;;;;;;4.45;1.85;;;7.90;99.90;;;;;;5018951;28;20041;-75
2022/05/05 01:18:33;;;;;;;5.57;2.30;;;7.90;99.90;;;;;;5013918;28;20034;-75
2022/05/05 01:20:59;;;;;;;5.40;2.42;;;7.90;99.90;;;;;;5019203;28;20029;-75
2022/05/05 01:23:25;;;;;;;5.18;2.20;;;7.80;99.90;;;;;;5020354;28;20479;-75
2022/05/05 01:28:43;;;;;;;3.85;2.15;;;7.70;99.90;;;;;;5018457;28;20040;-75
2022/05/05 01:31:08;;;;;;;4.45;2.53;;;7.60;99.90;;;;;;5019876;28;20060;-75
2022/05/05 01:33:34;;;;;;;5.47;2.58;;;7.60;99.90;;;;;;5018893;28;20116;-75
2022/05/05 01:36:01;;;;;;;4.93;2.83;;;7.60;99.90;;;;;;5019445;28;20033;-75
2022/05/05 01:38:40;;;;;;;6.25;2.72;;;7.40;99.90;;;;;;5018081;28;20057;-75
2022/05/05 01:41:10;;;;;;;5.68;2.78;;;7.40;99.90;;;;;;5017082;28;20052;-75
2022/05/05 01:43:37;;;;;;;5.65;2.15;;;7.40;99.90;;;;;;5018058;28;20069;-75
2022/05/05 01:46:04;;;;;;;4.93;3.05;;;7.40;99.90;;;;;;5018154;28;20037;-75
2022/05/05 01:48:30;;;;;;;5.43;2.92;;;7.40;99.90;;;;;;5018724;28;20426;-75
2022/05/05 01:50:57;;;;;;;5.22;2.83;;;7.30;99.90;;;;;;5019044;28;20116;-75
2022/05/05 01:53:23;;;;;;;5.70;3.33;;;7.30;99.90;;;;;;5017432;28;20040;-75
2022/05/05 01:55:48;;;;;;;5.93;3.05;;;7.30;99.90;;;;;;5016557;28;20053;-75
2022/05/05 01:58:14;;;;;;;4.78;2.72;;;7.30;99.90;;;;;;4995638;28;20041;-75
2022/05/05 02:00:40;;;;;;;6.15;2.80;;;7.30;99.90;;;;;;5001680;28;20036;-75
2022/05/05 02:03:12;;;;;;;6.18;2.92;;;7.30;99.90;;;;;;5018760;28;20466;-75
2022/05/05 02:05:43;;;;;;;4.32;2.75;;;7.30;99.90;;;;;;5018296;28;20497;-75
2022/05/05 02:08:09;;;;;;;6.10;3.00;;;7.10;99.90;;;;;;5018609;28;20034;-75
2022/05/05 02:10:35;;;;;;;8.07;4.03;;;7.20;99.90;;;;;;5017535;28;20897;-75
2022/05/05 02:13:01;;;;;;;5.97;2.60;;;7.20;99.90;;;;;;5016099;28;20041;-75
2022/05/05 02:15:28;;;;;;;5.65;3.28;;;7.20;99.90;;;;;;5018501;28;20037;-75
2022/05/05 02:17:54;;;;;;;6.80;2.78;;;7.20;99.90;;;;;;5017142;28;20033;-75
2022/05/05 02:20:19;;;;;;;6.50;3.05;;;7.20;99.90;;;;;;5035181;28;20120;-74
2022/05/05 02:22:45;;;;;;;6.63;3.35;;;7.20;99.90;;;;;;5001362;28;20718;-75
2022/05/05 02:25:11;;;;;;;6.10;3.45;;;7.10;99.90;;;;;;5001056;28;20036;-75
2022/05/05 02:27:53;;;;;;;6.95;3.47;;;7.20;99.90;;;;;;5001304;28;20124;-75
2022/05/05 02:30:20;;;;;;;7.75;4.30;;;7.10;99.90;;;;;;4996578;28;20075;-75
2022/05/05 02:32:47;;;;;;;4.28;3.33;;;7.10;99.90;;;;;;5016856;28;20526;-75
2022/05/05 02:35:13;;;;;;;5.65;3.78;;;7.10;99.90;;;;;;5025070;28;20048;-75
2022/05/05 02:40:23;;;;;;;7.28;3.75;;;7.00;99.90;;;;;;5024737;28;20045;-75
2022/05/05 02:42:49;;;;;;;7.30;3.67;;;6.90;99.90;;;;;;5017215;28;20021;-75
2022/05/05 02:45:15;;;;;;;10.55;3.63;;;6.90;99.90;;;;;;4994089;28;20029;-75
2022/05/05 02:47:40;;;;;;;7.20;3.72;;;6.90;99.90;;;;;;5000044;28;20029;-75
2022/05/05 02:50:06;;;;;;;6.35;3.28;;;6.90;99.90;;;;;;5017142;28;20125;-75
2022/05/05 02:52:32;;;;;;;6.78;3.65;;;6.90;99.90;;;;;;5017336;28;20060;-75
2022/05/05 02:54:58;;;;;;;5.95;3.25;;;6.80;99.90;;;;;;5016811;28;20187;-75
2022/05/05 02:57:24;;;;;;;7.13;3.38;;;6.80;99.90;;;;;;5017195;28;20434;-75
2022/05/05 02:59:54;;;;;;;5.78;3.65;;;6.70;99.90;;;;;;5033648;28;20042;-75
2022/05/05 03:02:21;;;;;;;8.75;3.30;;;6.70;99.90;;;;;;5016820;28;20036;-75
2022/05/05 03:04:47;;;;;;;7.28;3.35;;;6.70;99.90;;;;;;5016746;28;20034;-75
2022/05/05 03:07:12;;;;;;;7.47;3.45;;;6.70;99.90;;;;;;5016836;28;20526;-75
2022/05/05 03:09:41;;;;;;;5.78;3.55;;;6.70;99.90;;;;;;5016030;28;20029;-74
2022/05/05 03:12:09;;;;;;;8.13;3.92;;;6.60;99.90;;;;;;5016166;28;20030;-75
2022/05/05 03:14:35;;;;;;;8.60;4.07;;;6.50;99.90;;;;;;4995565;28;20034;-75
2022/05/05 03:17:00;;;;;;;6.88;3.53;;;6.60;99.90;;;;;;5015960;28;20088;-75
2022/05/05 03:19:26;;;;;;;7.53;3.13;;;6.50;99.90;;;;;;4995721;28;20033;-75
2022/05/05 03:21:55;;;;;;;6.82;3.78;;;6.50;99.90;;;;;;5001075;28;20107;-75
2022/05/05 03:24:21;;;;;;;7.60;4.30;;;6.50;99.90;;;;;;5016529;28;20029;-75
2022/05/05 03:26:46;;;;;;;6.80;3.67;;;6.40;99.90;;;;;;4999586;28;20087;-75
2022/05/05 03:29:12;;;;;;;8.73;3.88;;;6.40;99.90;;;;;;4999529;28;20474;-74
2022/05/05 03:31:38;;;;;;;5.80;3.67;;;6.40;99.90;;;;;;5016371;28;20032;-74
2022/05/05 03:34:04;;;;;;;8.48;3.55;;;6.40;99.90;;;;;;4998613;28;20052;-75
2022/05/05 03:36:30;;;;;;;8.95;3.45;;;6.40;99.90;;;;;;5009061;28;20030;-75
2022/05/05 03:38:56;;;;;;;6.50;3.30;;;6.40;99.90;;;;;;5015500;28;20025;-74
2022/05/05 03:41:21;;;;;;;6.97;3.47;;;6.40;99.90;;;;;;5017830;28;20064;-75
2022/05/05 03:43:47;;;;;;;8.85;3.35;;;6.40;99.90;;;;;;5016186;28;20079;-76
2022/05/05 03:46:13;;;;;;;5.47;3.38;;;6.30;99.90;;;;;;4998431;28;20498;-75
2022/05/05 03:48:39;;;;;;;6.07;3.60;;;6.40;99.90;;;;;;5016617;28;20037;-75
2022/05/05 03:51:04;;;;;;;8.90;4.00;;;6.30;99.90;;;;;;5015562;28;20559;-74
2022/05/05 03:53:30;;;;;;;9.45;3.92;;;6.40;99.90;;;;;;5023033;28;20033;-75
2022/05/05 03:55:56;;;;;;;6.43;3.83;;;6.40;99.90;;;;;;5031704;28;20092;-74
2022/05/05 03:58:21;;;;;;;5.72;3.30;;;6.40;99.90;;;;;;4982552;28;20065;-75
2022/05/05 04:00:47;;;;;;;7.90;3.13;;;6.40;99.90;;;;;;4998479;28;20140;-75
2022/05/05 04:03:31;;;;;;;4.65;3.15;;;6.50;99.90;;;;;;5017602;28;20453;-75
2022/05/05 04:05:57;;;;;;;5.88;3.40;;;6.60;99.90;;;;;;5016293;28;20032;-75
2022/05/05 04:08:23;;;;;;;6.22;3.97;;;6.60;99.90;;;;;;5016446;28;20033;-75
2022/05/05 04:10:48;;;;;;;4.13;2.75;;;6.60;99.90;;;;;;5023590;28;20033;-74
2022/05/05 04:13:14;;;;;;;4.97;2.80;;;6.60;99.90;;;;;;5015152;28;20037;-75
2022/05/05 04:15:40;;;;;;;6.75;2.97;;;6.60;99.90;;;;;;5015647;28;20072;-75
2022/05/05 04:18:06;;;;;;;7.28;3.95;;;6.60;99.90;;;;;;5016186;28;20526;-75
2022/05/05 04:20:32;;;;;;;6.20;2.95;;;6.60;99.90;;;;;;5017009;28;20058;-75
2022/05/05 04:22:57;;;;;;;6.10;2.88;;;6.60;99.90;;;;;;5015944;28;20144;-75
2022/05/05 04:25:23;;;;;;;5.30;2.78;;;6.70;99.90;;;;;;5014906;28;20030;-75
2022/05/05 04:27:50;;;;;;;6.82;3.75;;;6.70;99.90;;;;;;5032216;28;20022;-75
2022/05/05 04:30:16;;;;;;;6.30;3.00;;;6.80;99.90;;;;;;5014744;28;20034;-75
2022/05/05 04:32:43;;;;;;;6.80;3.22;;;6.90;99.90;;;;;;5033208;28;20477;-75
2022/05/05 04:35:09;;;;;;;6.78;2.95;;;6.80;99.90;;;;;;5009280;28;20092;-75
2022/05/05 04:37:35;;;;;;;4.43;2.70;;;6.80;99.90;;;;;;5015242;28;20469;-74
2022/05/05 04:40:00;;;;;;;8.95;3.92;;;6.90;99.90;;;;;;5016181;28;20021;-75
2022/05/05 04:42:26;;;;;;;8.57;3.67;;;6.90;99.90;;;;;;4990734;28;20041;-75
2022/05/05 04:44:52;;;;;;;10.38;4.25;;;6.90;99.90;;;;;;5000080;28;20040;-74
2022/05/05 04:47:18;;;;;;;8.20;3.85;;;7.00;99.90;;;;;;4993619;28;20025;-75
2022/05/05 04:49:43;;;;;;;4.93;3.47;;;7.00;99.90;;;;;;5003691;28;20036;-74
2022/05/05 04:52:09;;;;;;;7.38;3.30;;;7.00;99.90;;;;;;5019465;28;20654;-75
2022/05/05 04:54:35;;;;;;;6.97;3.17;;;7.10;99.90;;;;;;5019013;28;20071;-75
2022/05/05 04:57:00;;;;;;;9.35;3.72;;;7.10;99.90;;;;;;5018902;28;20045;-75
2022/05/05 04:59:26;;;;;;;4.85;2.97;;;7.00;99.90;;;;;;5019371;28;20025;-75
2022/05/05 05:01:52;;;;;;;6.70;3.65;;;7.10;99.90;;;;;;5018404;28;20108;-75
2022/05/05 05:04:18;;;;;;;6.32;3.60;;;7.10;99.90;;;;;;5019566;28;20055;-74
2022/05/05 05:06:43;;;;;;;8.40;4.38;;;7.10;99.90;;;;;;5018896;28;20585;-75
2022/05/05 05:09:09;;;;;;;7.50;4.15;;;7.00;99.90;;;;;;5018819;28;20029;-75
2022/05/05 05:11:35;;;;;;;9.07;4.43;;;7.10;99.90;;;;;;5019422;28;20029;-75
2022/05/05 05:14:01;;;;;;;8.75;4.38;;;7.10;99.90;;;;;;5018274;28;21882;-75
2022/05/05 05:16:27;;;;;;;7.50;3.88;;;7.30;99.90;;;;;;5017904;28;20037;-75
2022/05/05 05:18:53;;;;;;;7.85;4.18;;;7.30;99.90;;;;;;5025494;28;20072;-75
2022/05/05 05:21:23;;;;;;;6.13;3.70;;;7.40;99.90;;;;;;5018277;28;20389;-76
2022/05/05 05:23:49;;;;;;;9.05;4.28;;;7.50;99.90;;;;;;5018474;28;20040;-75
2022/05/05 05:26:14;;;;;;;8.30;4.10;;;7.50;99.90;;;;;;5016973;28;20034;-75
2022/05/05 05:28:43;;;;;;;6.07;3.92;;;7.60;99.90;;;;;;5001619;28;20036;-75
2022/05/05 05:31:09;;;;;;;6.13;3.40;;;7.60;99.90;;;;;;4996062;28;20056;-75
2022/05/05 05:33:35;;;;;;;9.95;4.50;;;7.70;99.90;;;;;;4992577;28;20060;-75
2022/05/05 05:36:00;;;;;;;7.35;4.43;;;7.90;99.90;;;;;;5025275;28;20458;-75
2022/05/05 05:38:26;;;;;;;7.07;4.00;;;8.00;99.90;;;;;;5017287;28;20087;-75
2022/05/05 05:40:52;;;;;;;5.57;2.17;;;8.00;99.90;;;;;;5018375;28;20112;-75
2022/05/05 05:43:18;;;;;;;8.93;4.20;;;8.20;99.90;;;;;;5017779;28;20482;-74
2022/05/05 05:45:43;;;;;;;6.85;3.35;;;8.30;99.90;;;;;;4996613;28;20021;-75
2022/05/05 05:48:09;;;;;;;6.30;3.63;;;8.40;99.90;;;;;;5017343;28;20122;-75
2022/05/05 05:50:36;;;;;;;4.85;3.17;;;8.50;99.90;;;;;;5018078;28;20045;-75
2022/05/05 05:53:02;;;;;;;7.28;4.00;;;8.80;99.90;;;;;;5035065;28;20032;-76
2022/05/05 05:55:28;;;;;;;5.72;3.78;;;8.90;99.90;;;;;;5000078;28;20049;-76
2022/05/05 05:57:53;;;;;;;7.22;3.70;;;9.10;99.90;;;;;;5018942;28;20079;-76
2022/05/05 06:00:19;;;;;;;9.10;3.78;;;9.20;99.90;;;;;;5017013;28;20040;-76
2022/05/05 06:05:46;;;;;;;7.88;3.90;;;9.50;99.90;;;;;;4979744;28;20076;-76
2022/05/05 06:08:12;;;;;;;6.00;3.83;;;9.70;99.90;;;;;;4963574;28;20042;-75
2022/05/05 06:10:37;;;;;;;6.38;3.63;;;9.90;99.90;;;;;;4976842;28;20190;-75
2022/05/05 06:13:03;;;;;;;5.57;3.85;;;10.00;99.90;;;;;;4979414;28;20030;-76
2022/05/05 06:15:30;;;;;;;6.60;3.78;;;10.20;99.90;;;;;;4963011;28;20047;-76
2022/05/05 06:17:56;;;;;;;6.53;3.75;;;10.50;99.90;;;;;;4978929;28;20038;-75
2022/05/05 06:20:22;;;;;;;7.78;4.00;;;10.60;99.90;;;;;;4958416;28;20050;-76
2022/05/05 06:22:47;;;;;;;7.97;3.47;;;10.60;99.90;;;;;;4978810;28;20034;-76
2022/05/05 06:25:13;;;;;;;8.10;4.53;;;10.50;99.90;;;;;;4977227;28;20046;-76
2022/05/05 06:27:40;;;;;;;5.90;3.80;;;10.60;99.90;;;;;;4961897;28;20431;-75
2022/05/05 06:30:13;;;;;;;4.40;3.20;;;10.60;99.90;;;;;;4977852;28;20049;-75
2022/05/05 06:32:42;;;;;;;5.93;3.92;;;10.70;99.90;;;;;;4962165;28;20046;-76
2022/05/05 06:35:08;;;;;;;6.47;3.72;;;10.90;99.90;;;;;;4976755;28;20398;-75
2022/05/05 06:37:35;;;;;;;5.60;2.90;;;11.00;99.90;;;;;;4979310;28;20089;-76
2022/05/05 06:40:01;;;;;;;7.57;4.75;;;11.20;99.90;;;;;;4989061;28;20456;-76
2022/05/05 06:42:30;;;;;;;9.75;5.32;;;11.40;99.90;;;;;;4993594;28;20075;-76
2022/05/05 06:44:56;;;;;;;10.55;5.90;;;11.70;99.90;;;;;;4972743;28;20788;-76
2022/05/05 06:47:21;;;;;;;15.23;4.85;;;11.90;99.90;;;;;;5031522;28;20125;-76
2022/05/05 06:49:47;;;;;;;5.07;4.18;;;12.20;99.90;;;;;;5023205;28;20037;-76
2022/05/05 06:52:13;;;;;;;6.38;4.47;;;12.20;99.90;;;;;;5014210;28;20033;-76
2022/05/05 06:54:39;;;;;;;7.35;4.30;;;12.50;99.90;;;;;;5016717;28;20044;-76
2022/05/05 06:57:05;;;;;;;6.63;3.33;;;12.90;99.90;;;;;;5016839;28;20176;-76
2022/05/05 06:59:31;;;;;;;5.35;3.30;;;13.20;99.90;;;;;;5031685;28;20100;-76
2022/05/05 07:02:01;;;;;;;6.68;3.03;;;13.50;99.90;;;;;;5015227;28;20509;-76
2022/05/05 07:07:13;;;;;;;5.93;2.97;;;14.00;99.90;;;;;;5016181;28;19924;-75
2022/05/05 07:12:24;;;;;;;5.38;2.75;;;13.90;99.90;;;;;;5014389;28;20035;-77
2022/05/05 07:14:49;;;;;;;5.00;3.30;;;14.10;99.90;;;;;;5015096;28;20049;-77
2022/05/05 07:17:15;;;;;;;7.72;3.58;;;14.30;99.90;;;;;;5009969;28;20068;-78
2022/05/05 07:19:41;;;;;;;6.63;3.40;;;14.60;99.90;;;;;;5021988;28;20060;-78
2022/05/05 07:22:07;;;;;;;6.82;3.53;;;14.80;99.90;;;;;;4997957;28;20131;-78
2022/05/05 07:24:33;;;;;;;8.50;3.28;;;15.00;99.90;;;;;;5015222;28;20127;-78
2022/05/05 07:27:00;;;;;;;6.45;3.33;;;14.90;99.90;;;;;;5009835;28;20474;-77
2022/05/05 07:29:26;;;;;;;7.63;3.58;;;15.10;99.90;;;;;;5014728;28;20026;-77
2022/05/05 07:31:51;;;;;;;7.45;4.22;;;15.30;99.90;;;;;;5015497;28;20079;-76
2022/05/05 07:34:18;;;;;;;8.43;5.10;;;14.90;99.90;;;;;;5015379;28;20029;-76
2022/05/05 07:36:44;;;;;;;6.80;3.42;;;14.60;99.90;;;;;;5032674;28;20770;-77
2022/05/05 07:39:10;;;;;;;9.23;5.00;;;14.80;99.90;;;;;;5010604;28;20112;-76
2022/05/05 07:41:36;;;;;;;8.88;4.90;;;14.70;99.90;;;;;;4999359;28;20347;-76
2022/05/05 07:44:01;;;;;;;8.15;4.05;;;14.80;99.90;;;;;;5015544;28;20108;-76
2022/05/05 07:46:27;;;;;;;7.25;4.05;;;15.10;99.90;;;;;;5015544;28;20107;-77
2022/05/05 07:48:54;;;;;;;7.03;4.47;;;15.00;99.90;;;;;;5031390;28;20037;-77
2022/05/05 07:51:20;;;;;;;5.47;3.35;;;15.20;99.90;;;;;;5016393;28;20660;-77
2022/05/05 07:54:34;;;;;;;7.05;3.58;;;15.90;99.90;;;;;;5015723;28;20133;-77
2022/05/05 07:56:31;;;;;;;9.43;5.13;;;15.80;99.90;;;;;;5015459;28;20092;-76
2022/05/05 07:58:56;;;;;;;10.88;6.20;;;15.60;99.90;;;;;;5021566;28;20532;-76
2022/05/05 08:01:22;;;;;;;13.73;6.63;;;15.20;99.90;;;;;;4998624;28;20032;-76
2022/05/05 08:03:48;;;;;;;11.25;7.03;;;15.30;99.90;;;;;;5014990;28;20032;-77
2022/05/05 08:06:13;;;;;;;14.07;6.35;;;15.70;99.90;;;;;;4998320;28;20125;-77
2022/05/05 08:08:39;;;;;;;12.73;6.85;;;15.50;99.90;;;;;;4993448;28;20029;-77
2022/05/05 08:11:05;;;;;;;12.65;6.85;;;15.50;99.90;;;;;;5015915;28;20037;-77
2022/05/05 08:13:34;;;;;;;10.40;5.53;;;15.30;99.90;;;;;;4998728;28;20417;-77
2022/05/05 08:16:00;;;;;;;9.23;5.27;;;15.90;99.90;;;;;;5014842;28;20505;-77
2022/05/05 08:18:26;;;;;;;11.98;6.22;;;16.20;99.90;;;;;;5015567;28;20034;-77
2022/05/05 08:20:51;;;;;;;12.68;7.47;;;15.80;99.90;;;;;;5015912;28;20053;-78
2022/05/05 08:23:18;;;;;;;10.82;5.95;;;15.70;99.90;;;;;;5023365;28;20080;-77
2022/05/05 08:28:28;;;;;;;7.53;4.97;;;16.40;99.90;;;;;;5018863;28;20470;-77
2022/05/05 08:30:55;;;;;;;9.18;4.03;;;16.70;99.90;;;;;;5018390;28;20030;-77
2022/05/05 08:33:20;;;;;;;9.75;6.18;;;16.90;99.90;;;;;;5034171;28;20021;-77
2022/05/05 08:35:46;;;;;;;7.88;5.10;;;17.00;99.90;;;;;;5019201;28;20042;-76
2022/05/05 08:38:13;;;;;;;10.93;6.82;;;16.80;99.90;;;;;;5018961;28;20037;-77
2022/05/05 08:40:40;;;;;;;9.00;4.45;;;17.00;99.90;;;;;;5020619;28;20045;-77
2022/05/05 08:43:07;;;;;;;9.93;4.75;;;17.30;99.90;;;;;;5017999;28;20052;-76
2022/05/05 08:45:34;;;;;;;10.48;6.28;;;17.60;99.90;;;;;;5020148;28;20358;-77
2022/05/05 08:48:03;;;;;;;11.50;5.85;;;17.50;99.90;;;;;;5003515;28;20041;-77
2022/05/05 08:50:32;;;;;;;10.20;5.57;;;17.60;99.90;;;;;;5018480;28;20042;-77
2022/05/05 08:52:58;;;;;;;6.47;3.63;;;17.80;99.90;;;;;;5002674;28;20077;-77
2022/05/05 08:55:25;;;;;;;12.15;6.22;;;18.40;99.90;;;;;;4997349;28;20155;-78
2022/05/05 08:57:51;;;;;;;10.77;6.15;;;17.80;99.90;;;;;;5019140;28;20037;-77
2022/05/05 09:00:17;;;;;;;7.38;4.95;;;17.90;99.90;;;;;;5019155;28;20033;-77
2022/05/05 09:02:44;;;;;;;7.75;4.00;;;18.40;99.90;;;;;;5033915;28;20091;-78
2022/05/05 09:05:10;;;;;;;7.15;3.13;;;18.90;99.90;;;;;;5003826;28;20038;-78
2022/05/05 09:07:52;;;;;;;8.75;4.90;;;18.80;99.90;;;;;;5017810;28;20034;-78
2022/05/05 09:10:19;;;;;;;5.03;3.55;;;18.50;99.90;;;;;;5016803;28;20035;-78
2022/05/05 09:13:01;;;;;;;7.53;4.18;;;18.70;99.90;;;;;;5018449;28;20026;-77
2022/05/05 09:15:31;;;;;;;7.97;4.95;;;19.10;99.90;;;;;;5013585;28;20505;-77
2022/05/05 09:18:13;;;;;;;7.40;3.90;;;18.50;99.90;;;;;;5019133;28;20057;-77
2022/05/05 09:20:40;;;;;;;4.10;2.30;;;19.10;99.90;;;;;;5013442;28;20026;-77
2022/05/05 09:23:06;;;;;;;6.65;2.55;;;19.20;99.90;;;;;;5032936;28;20107;-77
2022/05/05 09:25:48;;;;;;;7.70;3.92;;;19.00;99.90;;;;;;5034156;28;20034;-77
2022/05/05 09:28:21;;;;;;;4.70;3.15;;;18.80;99.90;;;;;;5016406;28;20048;-77
2022/05/05 09:30:48;;;;;;;10.40;5.30;;;18.80;99.90;;;;;;4996931;28;20448;-78
2022/05/05 09:33:35;;;;;;;9.02;3.78;;;18.80;99.90;;;;;;5017196;28;20525;-77
2022/05/05 09:36:10;;;;;;;8.70;4.63;;;18.90;99.90;;;;;;5016799;28;20045;-78
2022/05/05 09:38:52;;;;;;;10.30;6.38;;;19.30;99.90;;;;;;5001430;28;20125;-77
2022/05/05 09:41:28;;;;;;;10.52;6.43;;;18.10;99.90;;;;;;5015923;28;20647;-77
2022/05/05 09:44:06;;;;;;;7.57;4.70;;;18.10;99.90;;;;;;5001410;28;20026;-77
2022/05/05 09:47:13;;;;;;;5.72;3.15;;;18.90;99.90;;;;;;4999669;28;20376;-77
2022/05/05 09:49:58;;;;;;;9.85;5.90;;;20.10;99.90;;;;;;4984818;28;20041;-77
2022/05/05 09:58:16;;;;;;;5.45;3.78;;;18.70;99.90;;;;;;5017875;28;20034;-78
2022/05/05 10:00:52;;;;;;;4.60;2.45;;;19.40;99.90;;;;;;5017095;28;20112;-77
2022/05/05 10:06:25;;;;;;;5.53;3.10;;;20.30;99.90;;;;;;5033265;28;20045;-77
2022/05/05 10:08:53;;;;;;;10.00;5.32;;;20.30;99.90;;;;;;5017671;28;20132;-77
2022/05/05 10:11:20;;;;;;;5.05;3.58;;;19.00;99.90;;;;;;5018251;28;20029;-77
2022/05/05 10:13:47;;;;;;;6.00;3.72;;;19.90;99.90;;;;;;5017471;28;20053;-78
2022/05/05 10:16:16;;;;;;;9.52;6.78;;;19.90;99.90;;;;;;5016169;28;20159;-78
2022/05/05 10:18:42;;;;;;;10.35;5.95;;;19.10;99.90;;;;;;5034622;28;20402;-78
2022/05/05 10:21:35;;;;;;;12.10;5.72;;;18.80;99.90;;;;;;5016724;28;20166;-77
2022/05/05 10:24:05;;;;;;;9.13;3.60;;;18.60;99.90;;;;;;4995180;28;20037;-78
2022/05/05 10:26:32;;;;;;;4.03;1.88;;;19.60;99.90;;;;;;5018250;28;20068;-78
2022/05/05 10:28:57;;;;;;;5.78;2.38;;;20.10;99.90;;;;;;5024603;28;20041;-77
2022/05/05 10:31:33;;;;;;;3.92;2.00;;;21.00;99.90;;;;;;5017581;28;20041;-77
2022/05/05 10:34:14;;;;;;;4.47;2.15;;;21.00;99.90;;;;;;5017232;28;20052;-77
2022/05/05 10:36:55;;;;;;;3.95;2.10;;;21.40;99.90;;;;;;5016951;28;20041;-78
2022/05/05 10:39:22;;;;;;;6.68;4.18;;;20.80;99.90;;;;;;5016776;28;20037;-78
2022/05/05 10:41:48;;;;;;;6.90;3.17;;;20.00;99.90;;;;;;5012102;28;20852;-78
2022/05/05 10:44:17;;;;;;;5.55;3.05;;;20.20;99.90;;;;;;5015655;28;20122;-78
2022/05/05 10:47:07;;;;;;;4.82;2.80;;;20.60;99.90;;;;;;5016081;28;20041;-79
2022/05/05 10:49:42;;;;;;;;;;;20.60;99.90;;;;;;4990898;28;20037;-78
2022/05/05 10:52:10;;;;;;;2.67;1.48;;;20.90;99.90;;;;;;4993395;28;19921;-78
2022/05/05 10:54:41;;;;;;;3.97;1.90;;;20.50;99.90;;;;;;5016899;28;20125;-78
2022/05/05 10:57:25;;;;;;;3.45;1.30;;;20.90;99.90;;;;;;5016399;28;20495;-78
2022/05/05 11:00:07;;;;;;;3.60;1.27;;;21.70;99.90;;;;;;5023593;28;20444;-78
2022/05/05 11:02:33;;;;;;;4.30;2.92;;;22.00;99.90;;;;;;5016628;28;20021;-78
2022/05/05 11:05:20;;;;;;;4.57;3.00;;;20.60;99.90;;;;;;5011501;28;20041;-78
2022/05/05 11:07:49;;;;;;;10.35;6.00;;;19.90;99.90;;;;;;5016326;28;20481;-78
2022/05/05 11:13:47;;;;;;;6.78;4.22;;;19.20;99.90;;;;;;5016878;28;20116;-78
2022/05/05 11:22:17;;;;;;;4.80;2.20;;;19.30;99.90;;;;;;5016245;28;20040;-77
2022/05/05 11:24:47;;;;;;;4.50;2.42;;;19.90;99.90;;;;;;5016324;28;20140;-78
2022/05/05 11:27:20;;;;;;;3.17;1.50;;;19.90;99.90;;;;;;4997368;28;20084;-78
2022/05/05 11:29:50;;;;;;;4.13;1.02;;;20.70;99.90;;;;;;5031482;28;20029;-78
2022/05/05 11:32:16;;;;;;;2.33;1.25;;;21.30;99.90;;;;;;5017087;28;20041;-78
2022/05/05 11:34:45;;;;;;;2.67;0.95;;;21.30;99.90;;;;;;5014729;28;20087;-78
2022/05/05 11:37:11;;;;;;;3.17;1.30;;;21.90;99.90;;;;;;5015304;28;20351;-78
2022/05/05 11:39:38;;;;;;;3.45;1.05;;;22.10;99.90;;;;;;5016358;28;20099;-78
2022/05/05 11:42:07;;;;;;;4.93;1.73;;;21.90;99.90;;;;;;5022769;28;20171;-78
2022/05/05 11:44:37;;;;;;;4.28;1.20;;;21.50;99.90;;;;;;5016621;28;20277;-77
2022/05/05 11:47:22;;;;;;;6.68;3.03;;;21.90;99.90;;;;;;5016018;28;20034;-78
2022/05/05 11:49:51;;;;;;;7.85;5.13;;;20.50;99.90;;;;;;5015394;28;20042;-78
2022/05/05 11:52:24;;;;;;;6.72;3.97;;;19.50;99.90;;;;;;5016231;28;20033;-78
2022/05/05 11:54:55;;;;;;;7.40;4.47;;;19.80;99.90;;;;;;5015310;28;20048;-78
2022/05/05 11:57:38;;;;;;;3.50;2.15;;;19.90;99.90;;;;;;5015628;28;20072;-78
2022/05/05 12:02:53;;;;;;;8.18;3.80;;;20.30;99.90;;;;;;5016110;28;20029;-78
2022/05/05 12:05:21;;;;;;;10.05;5.20;;;20.00;99.90;;;;;;5016290;28;20164;-78
2022/05/05 12:07:47;;;;;;;6.85;4.30;;;20.20;99.90;;;;;;5016157;28;20060;-79
2022/05/05 12:10:14;;;;;;;8.32;4.78;;;20.40;99.90;;;;;;5015523;28;20124;-78
2022/05/05 12:12:48;;;;;;;3.60;2.92;;;20.10;99.90;;;;;;4984114;28;20111;-79
2022/05/05 12:15:20;;;;;;;9.77;5.43;;;20.30;99.90;;;;;;5015982;28;20033;-78
2022/05/05 12:17:48;;;;;;;5.47;3.15;;;20.20;99.90;;;;;;5016731;28;20065;-78
2022/05/05 12:20:16;;;;;;;4.55;2.80;;;20.30;99.90;;;;;;5000062;28;20038;-78
2022/05/05 12:22:43;;;;;;;4.85;4.22;;;20.40;99.90;;;;;;5016912;28;20037;-78
2022/05/05 12:25:17;;;;;;;4.07;2.10;;;20.40;99.90;;;;;;5016687;28;20049;-78
2022/05/05 12:27:44;;;;;;;3.63;2.15;;;20.40;99.90;;;;;;5016923;28;20155;-77
2022/05/05 12:30:10;;;;;;;6.60;3.22;;;20.30;99.90;;;;;;5009472;28;20025;-78
2022/05/05 12:32:49;;;;;;;5.35;2.33;;;20.60;99.90;;;;;;5016042;28;20111;-78
2022/05/05 12:35:17;;;;;;;2.40;0.80;;;20.80;99.90;;;;;;5014730;28;20160;-78
2022/05/05 12:37:43;;;;;;;4.60;1.92;;;21.80;99.90;;;;;;5013536;28;20583;-79
2022/05/05 12:40:09;;;;;;;6.32;4.00;;;20.90;99.90;;;;;;5029347;28;20034;-79
2022/05/05 12:42:39;;;;;;;6.03;3.78;;;20.40;99.90;;;;;;5014785;28;20533;-78
2022/05/05 12:45:20;;;;;;;7.70;4.90;;;19.90;99.90;;;;;;5015019;28;20068;-78
2022/05/05 12:47:47;;;;;;;5.50;2.75;;;19.70;99.90;;;;;;5018621;28;20034;-78
2022/05/05 12:50:48;;;;;;;5.63;2.70;;;20.30;99.90;;;;;;5015419;28;20925;-78
2022/05/05 13:01:46;;;;;;;3.90;1.40;;;20.30;99.90;;;;;;5015263;28;20057;-78
2022/05/05 13:04:15;;;;;;;3.33;1.75;;;20.90;99.90;;;;;;4997576;28;20385;-77
2022/05/05 13:06:42;;;;;;;4.35;2.13;;;20.50;99.90;;;;;;5032456;28;20029;-77
2022/05/05 13:09:09;;;;;;;5.57;2.53;;;20.40;99.90;;;;;;5014523;28;20029;-78
2022/05/05 13:11:36;;;;;;;4.45;1.60;;;19.70;99.90;;;;;;5018815;28;20125;-78
2022/05/05 13:14:04;;;;;;;5.22;2.92;;;19.80;99.90;;;;;;5020744;28;20482;-78
2022/05/05 13:16:30;;;;;;;5.65;4.05;;;20.20;99.90;;;;;;5020244;28;20511;-78
2022/05/05 13:18:57;;;;;;;7.10;4.80;;;20.40;99.90;;;;;;5019999;28;20080;-78
2022/05/05 13:21:23;;;;;;;5.18;3.33;;;20.60;99.90;;;;;;5019739;28;20401;-78
2022/05/05 13:23:49;;;;;;;2.88;1.02;;;20.80;99.90;;;;;;5013226;28;20371;-79
2022/05/05 13:26:15;;;;;;;5.82;3.45;;;21.20;99.90;;;;;;4994077;28;20113;-79
2022/05/05 13:28:41;;;;;;;7.00;4.00;;;20.30;99.90;;;;;;5018568;28;20607;-79
2022/05/05 13:31:06;;;;;;;7.38;4.45;;;19.70;99.90;;;;;;5019383;28;20078;-78
2022/05/05 13:33:32;;;;;;;9.23;4.47;;;19.40;99.90;;;;;;5018809;28;20033;-78
2022/05/05 13:35:59;;;;;;;6.15;3.40;;;19.20;99.90;;;;;;5019996;28;20437;-78
2022/05/05 13:38:26;;;;;;;3.17;1.75;;;19.20;99.90;;;;;;5019407;28;20037;-78
2022/05/05 13:40:52;;;;;;;5.47;2.47;;;19.40;99.90;;;;;;5020259;28;20045;-78
2022/05/05 13:43:18;;;;;;;5.13;3.85;;;19.70;99.90;;;;;;5016090;28;20025;-78